Sveva — IBEU — position and weather

sailwx.info

Track history (hours):
 
Tides and Currents Weather Stations Pressure Air Temp Water Temp Dewpoint Dewpoint Depression Visibility Wind Speed Wind Dir Waves Ship Positions

Sveva

Last reported at 2017-Aug-03 04:12 UTC. Time now 2017-Aug-21 11:50 UTC.
Position S 24°24' W 045°27'.
Warning: this ship's position is 18 days out of date.

Length 136 m; draft 7.8 m.

Type: Ship (hazmat cat B). MMSI: 247359000.

Date/timePositionNaut miles runAvg speedWind from/ knotsBaromVisibWave heightAir tempDewpointWater temp
2017-Aug-03 04:12S 24°24' W 045°27'211.7
2017-Aug-03 04:00S 24°24' W 045°29'611.7
2017-Aug-03 03:30S 24°25' W 045°36'611.6
2017-Aug-03 03:00S 24°26' W 045°42'611.6
2017-Aug-03 02:30S 24°27' W 045°48'611.5
2017-Aug-03 02:00S 24°28' W 045°54'611.6
2017-Aug-03 01:30S 24°30' W 046°00'611.6
2017-Aug-03 01:00S 24°31' W 046°07'611.1
2017-Aug-03 00:30S 24°29' W 046°13'611.8
2017-Aug-03 00:00S 24°25' W 046°17'611.8
2017-Aug-02 23:30S 24°21' W 046°21'611.9
2017-Aug-02 23:00S 24°15' W 046°23'510.4
2017-Aug-02 22:30S 24°10' W 046°23'611.5
2017-Aug-02 22:00S 24°04' W 046°22'5 9.9
2017-Aug-02 21:30S 23°60' W 046°20'  
Track history (hours):
 
Tides and Currents Weather Stations Pressure Air Temp Water Temp Dewpoint Dewpoint Depression Visibility Wind Speed Wind Dir Waves Ship Positions

Sveva

Last reported at 2017-Aug-03 04:12 UTC. Time now 2017-Aug-21 11:50 UTC.
Position S 24°24' W 045°27'.
Warning: this ship's position is 18 days out of date.

Length 136 m; draft 7.8 m.

Type: Ship (hazmat cat B). MMSI: 247359000.

Date/timePositionNaut miles runAvg speedWind from/ knotsBaromVisibWave heightAir tempDewpointWater temp
2017-Aug-03 04:12S 24°24' W 045°27'211.7
2017-Aug-03 04:00S 24°24' W 045°29'611.7
2017-Aug-03 03:30S 24°25' W 045°36'611.6
2017-Aug-03 03:00S 24°26' W 045°42'611.6
2017-Aug-03 02:30S 24°27' W 045°48'611.5
2017-Aug-03 02:00S 24°28' W 045°54'611.6
2017-Aug-03 01:30S 24°30' W 046°00'611.6
2017-Aug-03 01:00S 24°31' W 046°07'611.1
2017-Aug-03 00:30S 24°29' W 046°13'611.8
2017-Aug-03 00:00S 24°25' W 046°17'611.8
2017-Aug-02 23:30S 24°21' W 046°21'611.9
2017-Aug-02 23:00S 24°15' W 046°23'510.4
2017-Aug-02 22:30S 24°10' W 046°23'611.5
2017-Aug-02 22:00S 24°04' W 046°22'5 9.9
2017-Aug-02 21:30S 23°60' W 046°20'  

Dump ship's entire track history